Time;durP1;ratioP1;P1;durP2;ratioP2;P2;SDS_P1;SDS_P2;PMS_P1;PMS_P2;Temp;Humidity;BMP_temperature;BMP_pressure;BME280_temperature;BME280_humidity;BME280_pressure;Samples;Min_cycle;Max_cycle;Signal;HPM_P1;HPM_P2
2023/03/31 00:01:46;;;;;;;2.13;1.93;;;;;;;;;;6245626;23;20450;-78
2023/03/31 00:04:22;;;;;;;2.33;2.13;;;;;;;;;;6246197;23;20848;-78
2023/03/31 00:06:54;;;;;;;3.80;2.30;;;;;;;;;;6247075;23;20390;-78
2023/03/31 00:09:22;;;;;;;2.77;2.37;;;;;;;;;;6247201;23;20386;-78
2023/03/31 00:11:49;;;;;;;2.70;1.80;;;;;;;;;;6248757;23;20821;-79
2023/03/31 00:14:24;;;;;;;2.93;2.33;;;;;;;;;;6247620;23;20512;-77
2023/03/31 00:17:01;;;;;;;6.60;2.17;;;;;;;;;;6248226;23;20370;-77
2023/03/31 00:19:32;;;;;;;4.20;2.40;;;;;;;;;;6247095;23;20413;-78
2023/03/31 00:22:05;;;;;;;5.53;2.37;;;;;;;;;;6245268;23;20448;-77
2023/03/31 00:24:38;;;;;;;3.17;2.20;;;;;;;;;;6246638;22;20409;-76
2023/03/31 00:27:10;;;;;;;3.60;1.90;;;;;;;;;;6246580;23;20413;-78
2023/03/31 00:29:42;;;;;;;2.63;1.90;;;;;;;;;;6246648;23;20424;-79
2023/03/31 00:32:13;;;;;;;7.90;2.40;;;;;;;;;;6247206;23;20969;-78
2023/03/31 00:34:53;;;;;;;4.13;2.83;;;;;;;;;;6248404;22;20765;-78
2023/03/31 00:37:24;;;;;;;3.87;2.90;;;;;;;;;;6248259;23;20456;-78
2023/03/31 00:39:58;;;;;;;4.73;2.03;;;;;;;;;;6247830;23;20413;-77
2023/03/31 00:42:30;;;;;;;5.13;2.33;;;;;;;;;;6246814;23;20440;-78
2023/03/31 00:45:15;;;;;;;4.77;2.37;;;;;;;;;;6247801;22;20437;-77
2023/03/31 00:47:56;;;;;;;6.90;2.30;;;;;;;;;;6246575;23;20424;-77
2023/03/31 00:56:32;;;;;;;4.23;2.50;;;;;;;;;;6246131;22;20459;-78
2023/03/31 00:59:15;;;;;;;3.40;2.70;;;;;;;;;;6251472;23;20385;-77
2023/03/31 01:01:53;;;;;;;6.13;3.57;;;;;;;;;;6250513;23;20394;-77
2023/03/31 01:04:32;;;;;;;2.83;2.20;;;;;;;;;;6251562;23;20409;-77
2023/03/31 01:13:08;;;;;;;3.60;2.37;;;;;;;;;;6238546;23;20472;-77
2023/03/31 01:15:37;;;;;;;2.90;2.03;;;;;;;;;;6251217;22;20424;-76
2023/03/31 01:18:27;;;;;;;6.90;2.70;;;;;;;;;;6255569;23;20389;-77
2023/03/31 01:21:17;;;;;;;3.00;2.43;;;;;;;;;;6256333;23;20405;-77
2023/03/31 01:24:03;;;;;;;4.00;2.60;;;;;;;;;;6255266;23;20433;-77
2023/03/31 01:27:02;;;;;;;8.77;2.53;;;;;;;;;;6194099;23;20433;-77
2023/03/31 01:29:57;;;;;;;4.60;2.17;;;;;;;;;;6191353;23;20433;-77
2023/03/31 01:32:47;;;;;;;6.33;2.13;;;;;;;;;;6143964;23;20413;-77
2023/03/31 01:35:33;;;;;;;4.87;2.53;;;;;;;;;;6253737;22;20425;-76
2023/03/31 01:38:41;;;;;;;4.13;2.87;;;;;;;;;;6192547;23;20956;-77
2023/03/31 01:44:32;;;;;;;5.20;3.03;;;;;;;;;;6242301;22;20444;-78
2023/03/31 01:47:08;;;;;;;6.50;3.30;;;;;;;;;;6252709;23;20431;-78
2023/03/31 01:49:50;;;;;;;4.30;2.67;;;;;;;;;;6251908;23;20424;-77
2023/03/31 01:52:22;;;;;;;5.27;2.93;;;;;;;;;;6250307;23;20401;-77
2023/03/31 01:54:54;;;;;;;5.20;2.20;;;;;;;;;;6252657;22;20425;-76
2023/03/31 01:57:35;;;;;;;5.30;2.80;;;;;;;;;;6252311;23;20432;-77
2023/03/31 02:00:10;;;;;;;5.23;2.53;;;;;;;;;;6251447;23;20806;-76
2023/03/31 02:02:44;;;;;;;4.30;2.47;;;;;;;;;;6250598;23;20646;-77
2023/03/31 02:05:25;;;;;;;6.30;2.60;;;;;;;;;;6251033;22;20447;-76
2023/03/31 02:08:21;;;;;;;4.10;2.57;;;;;;;;;;6252588;23;20417;-77
2023/03/31 02:10:56;;;;;;;3.90;1.90;;;;;;;;;;6251621;23;21098;-77
2023/03/31 02:13:43;;;;;;;5.23;2.23;;;;;;;;;;6253712;23;20435;-77
2023/03/31 02:16:19;;;;;;;4.83;2.53;;;;;;;;;;6250106;22;20821;-77
2023/03/31 02:19:00;;;;;;;3.33;2.47;;;;;;;;;;6248948;23;20480;-77
2023/03/31 02:21:34;;;;;;;7.63;2.43;;;;;;;;;;6248554;23;20907;-79
2023/03/31 02:24:08;;;;;;;4.03;2.33;;;;;;;;;;6247759;23;20781;-79
2023/03/31 02:26:38;;;;;;;4.13;2.00;;;;;;;;;;6248750;22;20435;-77
2023/03/31 02:29:11;;;;;;;5.97;2.60;;;;;;;;;;6250214;23;20517;-77
2023/03/31 02:31:48;;;;;;;4.80;2.23;;;;;;;;;;6254901;23;20929;-77
2023/03/31 02:34:36;;;;;;;;;;;;;;;;;;;;;
2023/03/31 02:37:09;;;;;;;7.27;2.60;;;;;;;;;;6251189;23;20941;-77
2023/03/31 02:40:00;;;;;;;4.40;2.77;;;;;;;;;;6250991;23;20429;-78
2023/03/31 02:45:41;;;;;;;3.47;2.80;;;;;;;;;;6247396;22;20443;-78
2023/03/31 02:48:21;;;;;;;2.80;2.50;;;;;;;;;;6250330;23;20933;-78
2023/03/31 02:51:16;;;;;;;3.80;2.57;;;;;;;;;;6251714;23;20405;-77
2023/03/31 02:54:11;;;;;;;5.00;2.80;;;;;;;;;;6128326;23;20425;-78
2023/03/31 02:57:06;;;;;;;6.10;3.20;;;;;;;;;;6129106;23;20436;-78
2023/03/31 02:59:49;;;;;;;4.67;2.70;;;;;;;;;;6251396;23;20463;-77
2023/03/31 03:02:27;;;;;;;3.40;2.70;;;;;;;;;;6250296;23;20486;-78
2023/03/31 03:05:15;;;;;;;4.17;2.70;;;;;;;;;;6251867;22;21019;-76
2023/03/31 03:07:49;;;;;;;4.50;2.87;;;;;;;;;;6252549;23;20673;-76
2023/03/31 03:10:38;;;;;;;8.83;3.23;;;;;;;;;;6252217;23;20405;-77
2023/03/31 03:13:21;;;;;;;3.57;2.53;;;;;;;;;;6252720;23;20428;-79
2023/03/31 03:16:04;;;;;;;8.70;3.47;;;;;;;;;;6252462;22;20449;-79
2023/03/31 03:18:47;;;;;;;6.03;3.10;;;;;;;;;;6252804;23;20417;-77
2023/03/31 03:21:28;;;;;;;6.27;3.03;;;;;;;;;;6250909;23;20482;-77
2023/03/31 03:24:00;;;;;;;4.97;2.73;;;;;;;;;;6252849;23;20433;-79
2023/03/31 03:26:34;;;;;;;4.03;3.10;;;;;;;;;;6252755;22;20914;-77
2023/03/31 03:29:03;;;;;;;6.20;2.93;;;;;;;;;;6252767;23;20413;-78
2023/03/31 03:31:34;;;;;;;4.73;2.73;;;;;;;;;;6253967;23;20393;-78
2023/03/31 03:34:15;;;;;;;4.33;2.43;;;;;;;;;;6255151;23;20410;-78
2023/03/31 03:36:55;;;;;;;3.30;2.60;;;;;;;;;;6254634;22;20804;-78
2023/03/31 03:42:31;;;;;;;4.27;3.10;;;;;;;;;;6247155;23;20459;-77
2023/03/31 03:45:06;;;;;;;3.20;2.90;;;;;;;;;;6256863;22;20429;-78
2023/03/31 03:50:29;;;;;;;6.60;3.77;;;;;;;;;;6255284;23;20394;-77
2023/03/31 03:53:16;;;;;;;3.30;2.97;;;;;;;;;;6258753;23;20401;-77
2023/03/31 03:55:50;;;;;;;3.63;2.57;;;;;;;;;;6258977;22;20429;-77
2023/03/31 03:58:22;;;;;;;5.10;3.90;;;;;;;;;;6260352;23;20428;-77
2023/03/31 04:01:00;;;;;;;3.70;3.20;;;;;;;;;;6259932;23;20402;-78
2023/03/31 04:03:36;;;;;;;3.87;3.07;;;;;;;;;;6258843;23;20437;-78
2023/03/31 04:06:25;;;;;;;3.50;3.20;;;;;;;;;;6259483;22;20436;-77
2023/03/31 04:18:21;;;;;;;6.23;5.10;;;;;;;;;;6246301;23;20452;-77
2023/03/31 04:21:06;;;;;;;7.80;4.67;;;;;;;;;;6255062;23;20975;-78
2023/03/31 04:23:41;;;;;;;4.53;3.70;;;;;;;;;;6253548;23;20838;-77
2023/03/31 04:26:10;;;;;;;6.03;3.80;;;;;;;;;;6253348;22;20555;-78
2023/03/31 04:28:41;;;;;;;7.27;4.03;;;;;;;;;;6253302;23;20408;-77
2023/03/31 04:31:17;;;;;;;4.07;3.60;;;;;;;;;;6252349;23;20440;-77
2023/03/31 04:33:49;;;;;;;7.73;4.60;;;;;;;;;;6250290;23;20405;-77
2023/03/31 04:39:12;;;;;;;5.77;4.00;;;;;;;;;;6246045;23;20417;-78
2023/03/31 04:41:41;;;;;;;6.57;3.67;;;;;;;;;;6250618;23;20402;-78
2023/03/31 04:44:22;;;;;;;5.77;3.77;;;;;;;;;;6251612;23;21392;-78
2023/03/31 04:46:53;;;;;;;6.60;3.53;;;;;;;;;;6250134;23;20436;-78
2023/03/31 04:49:24;;;;;;;5.37;4.60;;;;;;;;;;6251130;23;20476;-79
2023/03/31 04:51:52;;;;;;;5.07;4.13;;;;;;;;;;6251687;23;20577;-78
2023/03/31 04:54:24;;;;;;;5.47;4.50;;;;;;;;;;6249937;23;20891;-77
2023/03/31 04:56:58;;;;;;;9.20;6.37;;;;;;;;;;6253520;23;20413;-78
2023/03/31 04:59:28;;;;;;;11.97;4.60;;;;;;;;;;6229153;23;20439;-78
2023/03/31 05:01:59;;;;;;;5.20;4.00;;;;;;;;;;6254063;23;20476;-77
2023/03/31 05:04:37;;;;;;;5.50;4.87;;;;;;;;;;6258183;22;20417;-79
2023/03/31 05:07:04;;;;;;;4.97;4.13;;;;;;;;;;6255738;23;20459;-78
2023/03/31 05:09:33;;;;;;;9.43;5.17;;;;;;;;;;6254674;23;20416;-78
2023/03/31 05:12:00;;;;;;;9.67;4.40;;;;;;;;;;6251608;23;20405;-79
2023/03/31 05:14:27;;;;;;;7.60;4.97;;;;;;;;;;6249266;22;20404;-78
2023/03/31 05:16:56;;;;;;;6.63;4.07;;;;;;;;;;6250939;23;20433;-78
2023/03/31 05:19:26;;;;;;;5.10;4.20;;;;;;;;;;6251514;23;20421;-78
2023/03/31 05:21:57;;;;;;;6.87;4.00;;;;;;;;;;6254083;23;20420;-78
2023/03/31 05:24:28;;;;;;;6.40;5.13;;;;;;;;;;6255496;22;20475;-78
2023/03/31 05:27:05;;;;;;;7.27;4.73;;;;;;;;;;6252254;23;20491;-76
2023/03/31 05:29:35;;;;;;;5.90;4.60;;;;;;;;;;6256997;23;20460;-76
2023/03/31 05:32:06;;;;;;;5.83;4.43;;;;;;;;;;6260248;23;20413;-77
2023/03/31 05:34:37;;;;;;;6.83;4.97;;;;;;;;;;6260416;22;20887;-78
2023/03/31 05:37:09;;;;;;;10.87;6.40;;;;;;;;;;6260921;23;20417;-75
2023/03/31 05:39:37;;;;;;;13.53;9.93;;;;;;;;;;6258883;23;20419;-75
2023/03/31 05:42:13;;;;;;;9.17;5.10;;;;;;;;;;6257440;23;20480;-75
2023/03/31 05:44:51;;;;;;;12.43;6.33;;;;;;;;;;6258459;22;20432;-76
2023/03/31 05:50:34;;;;;;;8.43;5.80;;;;;;;;;;6253853;23;20535;-75
2023/03/31 05:53:06;;;;;;;6.87;5.17;;;;;;;;;;6257574;23;20727;-75
2023/03/31 05:55:45;;;;;;;5.30;4.80;;;;;;;;;;6256759;22;20429;-76
2023/03/31 05:58:30;;;;;;;8.27;5.00;;;;;;;;;;6258738;23;20413;-74
2023/03/31 06:01:08;;;;;;;9.40;6.40;;;;;;;;;;6257593;23;20405;-76
2023/03/31 06:03:52;;;;;;;7.73;5.60;;;;;;;;;;6257374;23;20444;-77
2023/03/31 06:06:34;;;;;;;11.50;6.67;;;;;;;;;;6258558;22;20965;-76
2023/03/31 06:09:07;;;;;;;9.43;5.90;;;;;;;;;;6257392;23;20440;-76
2023/03/31 06:14:39;;;;;;;10.47;7.10;;;;;;;;;;6257491;23;20966;-78
2023/03/31 06:20:06;;;;;;;9.57;7.07;;;;;;;;;;6253877;23;20933;-76
2023/03/31 06:23:05;;;;;;;9.50;6.93;;;;;;;;;;6259275;23;20417;-76
2023/03/31 06:25:53;;;;;;;10.03;6.50;;;;;;;;;;6258520;22;20442;-76
2023/03/31 06:28:22;;;;;;;13.73;7.43;;;;;;;;;;6256238;23;20409;-78
2023/03/31 06:30:55;;;;;;;8.93;6.40;;;;;;;;;;6261148;23;20390;-77
2023/03/31 06:33:22;;;;;;;9.63;6.83;;;;;;;;;;6259369;23;20413;-77
2023/03/31 06:35:50;;;;;;;12.67;7.50;;;;;;;;;;6257924;22;20429;-76
2023/03/31 06:38:26;;;;;;;9.20;6.63;;;;;;;;;;6260674;23;20895;-76
2023/03/31 06:40:54;;;;;;;9.93;6.87;;;;;;;;;;6261759;23;20401;-78
2023/03/31 06:43:22;;;;;;;8.20;6.43;;;;;;;;;;6261678;23;20466;-76
2023/03/31 06:46:05;;;;;;;9.07;6.70;;;;;;;;;;6260699;22;20440;-78
2023/03/31 06:48:40;;;;;;;10.57;6.57;;;;;;;;;;6256588;23;20436;-76
2023/03/31 06:57:20;;;;;;;13.20;8.47;;;;;;;;;;6192174;23;20389;-76
2023/03/31 07:02:52;;;;;;;12.30;7.17;;;;;;;;;;6250161;23;20409;-76
2023/03/31 07:05:42;;;;;;;8.33;6.60;;;;;;;;;;6255609;22;20468;-76
2023/03/31 07:08:21;;;;;;;12.93;7.30;;;;;;;;;;6254612;23;20941;-76
2023/03/31 07:11:11;;;;;;;9.60;6.93;;;;;;;;;;6255537;23;20429;-75
2023/03/31 07:14:03;;;;;;;10.53;7.30;;;;;;;;;;6246680;23;20437;-77
2023/03/31 07:19:28;;;;;;;8.20;6.27;;;;;;;;;;6251744;23;20441;-76
2023/03/31 07:21:57;;;;;;;9.50;6.30;;;;;;;;;;6255770;23;20435;-76
2023/03/31 07:24:25;;;;;;;7.30;5.40;;;;;;;;;;6254728;22;20433;-77
2023/03/31 07:26:53;;;;;;;5.97;5.33;;;;;;;;;;6252447;23;20410;-76
2023/03/31 07:29:21;;;;;;;8.40;5.30;;;;;;;;;;6255573;23;20425;-76
2023/03/31 07:31:53;;;;;;;5.37;4.73;;;;;;;;;;6258042;23;20440;-77
2023/03/31 07:34:22;;;;;;;5.30;4.80;;;;;;;;;;6257182;23;20414;-77
2023/03/31 07:37:00;;;;;;;5.00;4.20;;;;;;;;;;6255395;23;20421;-76
2023/03/31 07:39:52;;;;;;;4.60;4.10;;;;;;;;;;6256772;23;20412;-77
2023/03/31 07:42:23;;;;;;;5.77;4.03;;;;;;;;;;6256602;23;20418;-76
2023/03/31 07:44:50;;;;;;;4.17;3.77;;;;;;;;;;6251128;22;20437;-77
2023/03/31 07:47:23;;;;;;;4.43;4.00;;;;;;;;;;6248889;23;20429;-76
2023/03/31 07:49:51;;;;;;;3.23;2.93;;;;;;;;;;6248285;23;20813;-77
2023/03/31 07:52:22;;;;;;;2.93;2.73;;;;;;;;;;6247080;23;20405;-77
2023/03/31 07:54:53;;;;;;;5.03;2.70;;;;;;;;;;6248333;22;20502;-76
2023/03/31 07:57:25;;;;;;;3.03;2.73;;;;;;;;;;6248047;23;20563;-78
2023/03/31 07:59:56;;;;;;;4.03;2.47;;;;;;;;;;6247449;23;20393;-78
2023/03/31 08:02:41;;;;;;;2.50;2.30;;;;;;;;;;6250119;23;20420;-76
2023/03/31 08:05:19;;;;;;;2.10;1.90;;;;;;;;;;6249990;22;20923;-77
2023/03/31 08:07:56;;;;;;;2.40;2.00;;;;;;;;;;6250152;23;20414;-76
2023/03/31 08:10:28;;;;;;;2.00;1.80;;;;;;;;;;6251041;23;20408;-78
2023/03/31 08:12:58;;;;;;;1.80;1.53;;;;;;;;;;6249510;23;20409;-77
2023/03/31 08:15:31;;;;;;;2.20;1.63;;;;;;;;;;6250174;22;20832;-78
2023/03/31 08:18:04;;;;;;;1.67;1.50;;;;;;;;;;6249355;23;20455;-77
2023/03/31 08:20:59;;;;;;;2.13;1.93;;;;;;;;;;6248646;23;20485;-77
2023/03/31 08:23:37;;;;;;;1.40;1.40;;;;;;;;;;6253536;23;20440;-78
2023/03/31 08:26:18;;;;;;;1.67;1.50;;;;;;;;;;6255408;22;20441;-78
2023/03/31 08:28:53;;;;;;;2.80;1.80;;;;;;;;;;6253062;23;20405;-77
2023/03/31 08:31:27;;;;;;;1.60;1.50;;;;;;;;;;6253930;23;20447;-79
2023/03/31 08:34:13;;;;;;;2.33;1.50;;;;;;;;;;6252725;23;20413;-79
2023/03/31 08:36:54;;;;;;;2.03;1.63;;;;;;;;;;6252873;22;20481;-79
2023/03/31 08:39:26;;;;;;;1.43;1.30;;;;;;;;;;6256022;23;20452;-78
2023/03/31 08:41:59;;;;;;;4.00;1.47;;;;;;;;;;6253413;23;20839;-76
2023/03/31 08:44:30;;;;;;;1.70;1.60;;;;;;;;;;6251325;22;20433;-78
2023/03/31 08:47:00;;;;;;;2.67;1.80;;;;;;;;;;6248996;23;20413;-80
2023/03/31 08:49:30;;;;;;;2.77;1.60;;;;;;;;;;6247304;23;20414;-78
2023/03/31 08:51:58;;;;;;;1.80;1.27;;;;;;;;;;6246611;23;20413;-78
2023/03/31 08:54:31;;;;;;;1.97;1.70;;;;;;;;;;6245635;22;20408;-77
2023/03/31 08:57:06;;;;;;;1.63;1.30;;;;;;;;;;6248703;23;20808;-77
2023/03/31 08:59:49;;;;;;;1.90;1.40;;;;;;;;;;6250101;23;20413;-76
2023/03/31 09:02:23;;;;;;;2.33;2.10;;;;;;;;;;6255435;23;20964;-79
2023/03/31 09:05:11;;;;;;;3.20;1.60;;;;;;;;;;6250328;22;20887;-78
2023/03/31 09:08:09;;;;;;;2.40;1.67;;;;;;;;;;6253984;23;20484;-77
2023/03/31 09:11:05;;;;;;;2.27;1.50;;;;;;;;;;6254254;23;20416;-78
2023/03/31 09:14:05;;;;;;;4.00;1.77;;;;;;;;;;6252895;23;20473;-77
2023/03/31 09:16:40;;;;;;;1.70;1.60;;;;;;;;;;6212113;23;20433;-77
2023/03/31 09:19:25;;;;;;;2.70;1.50;;;;;;;;;;6252133;23;20497;-77
2023/03/31 09:25:16;;;;;;;3.90;1.57;;;;;;;;;;6251237;22;20444;-77
2023/03/31 09:27:51;;;;;;;1.10;1.03;;;;;;;;;;6256199;23;20394;-77
2023/03/31 09:33:47;;;;;;;1.50;1.07;;;;;;;;;;6172371;23;20409;-77
2023/03/31 09:36:43;;;;;;;3.20;1.10;;;;;;;;;;6137506;23;20505;-79
2023/03/31 09:39:40;;;;;;;3.33;1.30;;;;;;;;;;6231820;23;20446;-77
2023/03/31 09:42:47;;;;;;;1.53;1.43;;;;;;;;;;6258494;23;20415;-77
2023/03/31 09:45:39;;;;;;;2.60;1.40;;;;;;;;;;6258895;22;20440;-77
2023/03/31 09:48:49;;;;;;;2.90;1.37;;;;;;;;;;6259021;23;20416;-78
2023/03/31 09:54:33;;;;;;;2.40;1.57;;;;;;;;;;6232518;23;20413;-77
2023/03/31 09:57:47;;;;;;;3.40;1.60;;;;;;;;;;6250480;23;20413;-77
2023/03/31 10:00:39;;;;;;;3.43;1.57;;;;;;;;;;6270705;23;20417;-77
2023/03/31 10:03:35;;;;;;;2.70;1.70;;;;;;;;;;6269781;23;20545;-77
2023/03/31 10:09:21;;;;;;;4.10;1.80;;;;;;;;;;6170946;23;20407;-76
2023/03/31 10:12:15;;;;;;;3.10;1.90;;;;;;;;;;6168894;23;20416;-77
2023/03/31 10:17:58;;;;;;;3.40;1.37;;;;;;;;;;6261872;23;20487;-77
2023/03/31 10:23:43;;;;;;;3.53;1.50;;;;;;;;;;6255994;23;20406;-77
2023/03/31 10:26:28;;;;;;;1.80;1.63;;;;;;;;;;6250653;22;20449;-79
2023/03/31 10:28:57;;;;;;;1.57;1.13;;;;;;;;;;6248455;23;20413;-76
2023/03/31 10:34:32;;;;;;;4.63;1.83;;;;;;;;;;6231687;23;20408;-76
2023/03/31 10:37:14;;;;;;;6.80;1.80;;;;;;;;;;6247959;23;20422;-78
2023/03/31 10:39:51;;;;;;;2.93;1.87;;;;;;;;;;6248530;23;20420;-77
2023/03/31 10:45:30;;;;;;;4.20;1.40;;;;;;;;;;6226164;22;20448;-77
2023/03/31 10:48:05;;;;;;;1.73;1.50;;;;;;;;;;6256180;23;20516;-78
2023/03/31 10:50:45;;;;;;;7.30;2.33;;;;;;;;;;6254539;23;20417;-78
2023/03/31 10:53:29;;;;;;;2.50;1.50;;;;;;;;;;6254676;23;20409;-78
2023/03/31 10:56:33;;;;;;;3.47;1.60;;;;;;;;;;6253430;22;20433;-77
2023/03/31 10:59:20;;;;;;;2.93;1.37;;;;;;;;;;6253113;23;20409;-78
2023/03/31 11:02:11;;;;;;;3.30;1.60;;;;;;;;;;6249840;23;20413;-77
2023/03/31 11:05:01;;;;;;;2.90;1.33;;;;;;;;;;6250199;22;20414;-77
2023/03/31 11:11:11;;;;;;;3.10;1.60;;;;;;;;;;6248576;23;20409;-77
2023/03/31 11:13:53;;;;;;;3.90;1.30;;;;;;;;;;6189917;23;20413;-78
2023/03/31 11:16:32;;;;;;;2.50;1.50;;;;;;;;;;6248541;22;21016;-78
2023/03/31 11:19:36;;;;;;;7.30;1.30;;;;;;;;;;6249876;23;20404;-77
2023/03/31 11:22:14;;;;;;;5.03;1.67;;;;;;;;;;6236245;23;20417;-76
2023/03/31 11:24:47;;;;;;;2.30;0.90;;;;;;;;;;6253188;22;20433;-76
2023/03/31 11:34:30;;;;;;;0.80;0.70;;;;;;;;;;6232420;23;20393;-75
2023/03/31 11:40:48;;;;;;;0.80;0.63;;;;;;;;;;6257436;23;21113;-75
2023/03/31 11:43:35;;;;;;;1.07;0.70;;;;;;;;;;6261305;23;20402;-76
2023/03/31 11:46:38;;;;;;;0.80;0.67;;;;;;;;;;6259791;22;20857;-77
2023/03/31 11:49:36;;;;;;;;;;;;;;;;;;;;;
2023/03/31 11:52:24;;;;;;;0.93;0.83;;;;;;;;;;6251417;23;20389;-78
2023/03/31 11:55:20;;;;;;;1.00;1.00;;;;;;;;;;6250172;22;20997;-77
2023/03/31 11:57:58;;;;;;;1.60;1.07;;;;;;;;;;6255322;23;20401;-76
2023/03/31 12:00:33;;;;;;;2.23;0.80;;;;;;;;;;6254179;23;20424;-77
2023/03/31 12:03:28;;;;;;;0.97;0.83;;;;;;;;;;6253548;23;20415;-78
2023/03/31 12:06:03;;;;;;;2.20;0.80;;;;;;;;;;6257204;22;20508;-78
2023/03/31 12:08:36;;;;;;;0.60;0.60;;;;;;;;;;6259528;23;20409;-79
2023/03/31 12:11:14;;;;;;;0.70;0.70;;;;;;;;;;6258838;23;20401;-78
2023/03/31 12:13:46;;;;;;;5.33;0.80;;;;;;;;;;6262001;23;20413;-76
2023/03/31 12:16:20;;;;;;;0.80;0.50;;;;;;;;;;6262298;22;20455;-78
2023/03/31 12:18:57;;;;;;;0.60;0.60;;;;;;;;;;6259318;23;20425;-78
2023/03/31 12:21:28;;;;;;;0.70;0.70;;;;;;;;;;6260598;23;20598;-77
2023/03/31 12:23:58;;;;;;;3.50;0.90;;;;;;;;;;6259386;23;20409;-79
2023/03/31 12:26:49;;;;;;;0.70;0.70;;;;;;;;;;6261001;22;20441;-77
2023/03/31 12:29:30;;;;;;;0.80;0.80;;;;;;;;;;6259324;23;20486;-77
2023/03/31 12:32:02;;;;;;;2.20;0.80;;;;;;;;;;6261556;23;20525;-78
2023/03/31 12:40:23;;;;;;;0.93;0.60;;;;;;;;;;6207149;23;20405;-77
2023/03/31 12:43:24;;;;;;;;;;;;;;;;;;;;;
2023/03/31 12:46:07;;;;;;;1.40;0.77;;;;;;;;;;6169142;23;20447;-77
2023/03/31 12:48:51;;;;;;;0.90;0.50;;;;;;;;;;6177304;23;20414;-78
2023/03/31 12:51:50;;;;;;;1.70;1.00;;;;;;;;;;6250761;23;20409;-77
2023/03/31 12:57:51;;;;;;;2.27;0.80;;;;;;;;;;6132095;23;20386;-77
2023/03/31 13:00:30;;;;;;;1.40;0.70;;;;;;;;;;6129776;23;20524;-77
2023/03/31 13:03:19;;;;;;;2.10;1.30;;;;;;;;;;6232335;23;20393;-79
2023/03/31 13:06:03;;;;;;;0.87;0.87;;;;;;;;;;6248393;22;20437;-77
2023/03/31 13:11:46;;;;;;;1.90;1.10;;;;;;;;;;6225870;23;20389;-77
2023/03/31 13:14:30;;;;;;;2.03;1.00;;;;;;;;;;6245140;23;20689;-77
2023/03/31 13:17:16;;;;;;;1.60;0.90;;;;;;;;;;6245491;23;20409;-78
2023/03/31 13:19:52;;;;;;;1.50;0.97;;;;;;;;;;6245599;23;20432;-76
2023/03/31 13:25:40;;;;;;;0.60;0.60;;;;;;;;;;6245877;22;20424;-77
2023/03/31 13:28:12;;;;;;;1.00;0.73;;;;;;;;;;6245829;23;20883;-76
2023/03/31 13:30:53;;;;;;;2.37;1.00;;;;;;;;;;6246924;23;20474;-75
2023/03/31 13:33:22;;;;;;;3.17;0.73;;;;;;;;;;6246304;23;20462;-75
2023/03/31 13:35:53;;;;;;;1.00;0.50;;;;;;;;;;6247103;22;20431;-77
2023/03/31 13:38:32;;;;;;;0.77;0.50;;;;;;;;;;6249017;23;20447;-75
2023/03/31 13:41:16;;;;;;;1.33;0.90;;;;;;;;;;6247898;23;20882;-75
2023/03/31 13:43:56;;;;;;;0.50;0.50;;;;;;;;;;6247238;23;20366;-76
2023/03/31 13:46:33;;;;;;;0.83;0.60;;;;;;;;;;6247234;22;20440;-78
2023/03/31 13:49:09;;;;;;;2.97;0.80;;;;;;;;;;6249622;23;20746;-76
2023/03/31 13:51:47;;;;;;;1.80;0.67;;;;;;;;;;6250308;23;20791;-76
2023/03/31 13:54:33;;;;;;;1.90;0.80;;;;;;;;;;6250327;23;20390;-76
2023/03/31 13:57:26;;;;;;;0.57;0.57;;;;;;;;;;6251080;23;20436;-76
2023/03/31 14:00:24;;;;;;;0.70;0.70;;;;;;;;;;6253943;23;20483;-76
2023/03/31 14:06:17;;;;;;;8.97;8.10;;;;;;;;;;6121109;23;20472;-76
2023/03/31 14:08:57;;;;;;;1.60;0.70;;;;;;;;;;6250098;23;20428;-76
2023/03/31 14:11:32;;;;;;;0.93;0.60;;;;;;;;;;6255763;23;20412;-77
2023/03/31 14:14:06;;;;;;;0.67;0.67;;;;;;;;;;6253092;23;20462;-76
2023/03/31 14:16:41;;;;;;;0.57;0.57;;;;;;;;;;6255796;22;20448;-76
2023/03/31 14:19:27;;;;;;;1.13;0.80;;;;;;;;;;6257322;23;20397;-79
2023/03/31 14:22:02;;;;;;;0.73;0.60;;;;;;;;;;6255190;23;20471;-76
2023/03/31 14:24:38;;;;;;;1.43;0.80;;;;;;;;;;6259295;22;20431;-76
2023/03/31 14:27:18;;;;;;;2.00;1.20;;;;;;;;;;6258028;23;20440;-77
2023/03/31 14:30:05;;;;;;;1.00;0.70;;;;;;;;;;6260752;23;20382;-77
2023/03/31 14:32:56;;;;;;;0.90;0.90;;;;;;;;;;6261743;23;20436;-78
2023/03/31 14:41:44;;;;;;;0.70;0.70;;;;;;;;;;6103347;23;20414;-79
2023/03/31 14:44:21;;;;;;;1.43;1.00;;;;;;;;;;6106596;23;20421;-78
2023/03/31 14:50:04;;;;;;;1.90;0.70;;;;;;;;;;6258137;23;20416;-78
2023/03/31 14:52:42;;;;;;;1.07;0.70;;;;;;;;;;6264860;23;20413;-78
2023/03/31 14:55:20;;;;;;;0.77;0.67;;;;;;;;;;6257912;22;20492;-79
2023/03/31 14:57:50;;;;;;;0.97;0.70;;;;;;;;;;6261222;23;20464;-79
2023/03/31 15:00:24;;;;;;;1.33;0.87;;;;;;;;;;6260667;23;20404;-77
2023/03/31 15:02:59;;;;;;;0.67;0.67;;;;;;;;;;6260155;23;20416;-78
2023/03/31 15:08:44;;;;;;;1.33;1.10;;;;;;;;;;6263578;23;20453;-79
2023/03/31 15:11:27;;;;;;;1.80;0.80;;;;;;;;;;6260684;23;20512;-78
2023/03/31 15:13:58;;;;;;;1.10;1.07;;;;;;;;;;6261122;23;20401;-77
2023/03/31 15:19:43;;;;;;;1.33;0.70;;;;;;;;;;6256449;23;20400;-77
2023/03/31 15:22:28;;;;;;;1.80;0.90;;;;;;;;;;6260699;23;20781;-78
2023/03/31 15:24:59;;;;;;;0.60;0.60;;;;;;;;;;6261133;22;20438;-77
2023/03/31 15:27:37;;;;;;;4.93;0.87;;;;;;;;;;6259912;23;20422;-77
2023/03/31 15:30:16;;;;;;;2.03;0.63;;;;;;;;;;6258399;23;20436;-77
2023/03/31 15:35:44;;;;;;;1.17;0.60;;;;;;;;;;6252047;22;20472;-77
2023/03/31 15:38:36;;;;;;;0.87;0.80;;;;;;;;;;6255291;23;20401;-77
2023/03/31 15:41:26;;;;;;;1.87;1.00;;;;;;;;;;6248786;23;20433;-78
2023/03/31 15:47:01;;;;;;;1.17;0.70;;;;;;;;;;6205266;23;20445;-77
2023/03/31 15:49:42;;;;;;;2.60;1.03;;;;;;;;;;6256546;23;20409;-78
2023/03/31 15:52:23;;;;;;;1.77;0.87;;;;;;;;;;6256407;23;20439;-79
2023/03/31 15:55:00;;;;;;;1.17;0.90;;;;;;;;;;6255663;22;20449;-79
2023/03/31 15:57:40;;;;;;;1.47;0.80;;;;;;;;;;6256597;23;20393;-77
2023/03/31 16:00:35;;;;;;;1.00;1.00;;;;;;;;;;6257325;23;20413;-79
2023/03/31 16:03:15;;;;;;;1.53;1.40;;;;;;;;;;6256764;23;20404;-77
2023/03/31 16:05:49;;;;;;;0.83;0.83;;;;;;;;;;6255993;22;20428;-77
2023/03/31 16:08:32;;;;;;;1.07;1.00;;;;;;;;;;6254999;23;20437;-78
2023/03/31 16:11:11;;;;;;;2.10;0.93;;;;;;;;;;6253687;23;20940;-79
2023/03/31 16:13:51;;;;;;;1.17;1.07;;;;;;;;;;6256409;23;20417;-77
2023/03/31 16:16:27;;;;;;;1.73;1.13;;;;;;;;;;6259072;22;20425;-77
2023/03/31 16:19:13;;;;;;;3.50;1.37;;;;;;;;;;6263346;23;20401;-77
2023/03/31 16:24:40;;;;;;;1.13;0.90;;;;;;;;;;6242084;22;20395;-76
2023/03/31 16:27:18;;;;;;;1.30;1.10;;;;;;;;;;6263268;23;20483;-78
2023/03/31 16:30:00;;;;;;;1.10;1.00;;;;;;;;;;6263861;23;20413;-77
2023/03/31 16:35:40;;;;;;;2.80;0.93;;;;;;;;;;6241867;22;20409;-78
2023/03/31 16:38:50;;;;;;;1.90;1.43;;;;;;;;;;6235972;23;20417;-78
2023/03/31 16:44:20;;;;;;;1.50;0.80;;;;;;;;;;6255836;23;20401;-77
2023/03/31 16:47:15;;;;;;;1.23;0.70;;;;;;;;;;6253932;23;20500;-77
2023/03/31 16:55:56;;;;;;;0.87;0.87;;;;;;;;;;6244385;22;20468;-79
2023/03/31 17:08:02;;;;;;;2.10;1.40;;;;;;;;;;6164127;23;20555;-77
2023/03/31 17:16:48;;;;;;;1.07;0.90;;;;;;;;;;6047316;23;20407;-78
2023/03/31 17:28:55;;;;;;;1.67;1.27;;;;;;;;;;6039964;23;20673;-76
2023/03/31 17:44:32;;;;;;;1.80;1.53;;;;;;;;;;5902389;24;20440;-75
2023/03/31 17:47:22;;;;;;;3.03;1.43;;;;;;;;;;6042171;23;20501;-76
2023/03/31 17:50:18;;;;;;;1.33;0.90;;;;;;;;;;6157509;23;20403;-78
2023/03/31 17:56:18;;;;;;;2.03;1.00;;;;;;;;;;6228839;22;20496;-76
2023/03/31 17:58:52;;;;;;;1.37;1.03;;;;;;;;;;6255944;23;20413;-77
2023/03/31 18:01:40;;;;;;;1.67;1.50;;;;;;;;;;6257993;23;20405;-78
2023/03/31 18:13:45;;;;;;;1.20;1.00;;;;;;;;;;6199011;23;20419;-76
2023/03/31 18:16:44;;;;;;;;;;;;;;;;;;;;;
2023/03/31 18:19:32;;;;;;;1.90;1.37;;;;;;;;;;6251348;23;20410;-78
2023/03/31 18:22:33;;;;;;;2.00;1.30;;;;;;;;;;6257673;23;20409;-77
2023/03/31 18:25:10;;;;;;;0.87;0.83;;;;;;;;;;6258815;22;20490;-78
2023/03/31 18:27:48;;;;;;;1.53;1.43;;;;;;;;;;6256953;23;20432;-77
2023/03/31 18:30:26;;;;;;;7.57;1.20;;;;;;;;;;6255354;23;20437;-77
2023/03/31 18:33:09;;;;;;;3.40;1.37;;;;;;;;;;6256698;23;20421;-77
2023/03/31 18:35:48;;;;;;;3.00;1.60;;;;;;;;;;6256383;22;20460;-78
2023/03/31 18:38:29;;;;;;;3.27;1.77;;;;;;;;;;6260752;23;20410;-78
2023/03/31 18:41:00;;;;;;;2.23;1.73;;;;;;;;;;6259152;23;20498;-77
2023/03/31 18:43:31;;;;;;;2.63;1.40;;;;;;;;;;6250501;23;20464;-76
2023/03/31 18:46:16;;;;;;;2.33;1.40;;;;;;;;;;6250387;22;20958;-76
2023/03/31 18:48:46;;;;;;;2.30;2.07;;;;;;;;;;6249727;23;20441;-77
2023/03/31 18:51:20;;;;;;;3.63;1.47;;;;;;;;;;6252258;23;20496;-78
2023/03/31 18:53:53;;;;;;;2.70;1.70;;;;;;;;;;6252142;23;20409;-77
2023/03/31 18:56:23;;;;;;;2.23;1.10;;;;;;;;;;6250591;22;20516;-76
2023/03/31 18:58:50;;;;;;;2.10;1.43;;;;;;;;;;6249606;23;20413;-79
2023/03/31 19:01:39;;;;;;;;;;;;;;;;;;;;;
2023/03/31 19:04:08;;;;;;;2.03;1.83;;;;;;;;;;6251201;23;20394;-78
2023/03/31 19:06:46;;;;;;;1.30;1.20;;;;;;;;;;6251761;22;20977;-78
2023/03/31 19:09:24;;;;;;;;;;;;;;;;;;;;;
2023/03/31 19:12:05;;;;;;;2.33;1.47;;;;;;;;;;6251458;23;20392;-77
2023/03/31 19:14:51;;;;;;;1.53;1.10;;;;;;;;;;6251382;22;20398;-76
2023/03/31 19:17:28;;;;;;;2.13;1.60;;;;;;;;;;6250740;23;20489;-77
2023/03/31 19:20:15;;;;;;;5.00;1.87;;;;;;;;;;6249445;23;20479;-77
2023/03/31 19:23:01;;;;;;;3.20;1.30;;;;;;;;;;6247906;23;20413;-76